Aérodrome :







RETROUVEZ-NOUS SUR...

 
LOGIN :

S'inscrire | Disclaimer

   EN    FR    IT 

 









Légende :    VFR   VFR Marginal   IFR   IFR Intensif   IFR Très Intensif
Visi : 
Plafond : 
>= 8 km
>= 3000ft
5 à 8 km
1000 à 3000 ft
1500m à 5 km
500 à 1000 ft
800 à 1500m
200 à 500 ft
< 800m
< 200 ft
Symboles :   Orages  Brouillard  Fortes neiges  Fortes précipitations  Vent > 20 kt






- Altitude de l'aérodrome : 76 ft
- Code IATA : EGS


BIEG - Egilsstaðir

DERNIER METAR :
  • 020700Z 01018KT 7000 -SN BKN012 OVC022 M01/M03 Q1008 R04/490294

METARs EXPIRÉS :
  • 020600Z 01024G34KT 1500 R04/P1500 -SN DRSN VV006 M01/M02 Q1006 R04/490294
  • 020500Z 00000KT 6000 -SN VV012 M04/M05 Q1005 R04/490294

TAF TAF BIEG
Valide du 02 à 06h jusqu'au 03 à 06h UTC


020403Z 0206/0306 36020G30KT 5000 SN SCT012 BKN022 TXM01/0206Z TNM07/0303Z
PROB40
TEMPO 0206/0208 1000 +SN VV005
BECMG 0210/0212 34018KT 9999 -SN BKN012 OVC022



MET'MAP, la Météo Aéronautique d'un coup d'oeil ! - Copyright ORBIFLY Décembre 2007 - Disclaimer

ORBIFLY MET'MAP TEAM :

Programmation & Développement : Alexandra Zaïnal
Sur une idée originale de : Baudouin d'Aumeries
Assistance à la programmation : Marc-Olivier Méhu
Soutien technique & logistique : Manuel Goepfert

Contact : metmap@orbifly.com




SOURCES & CREDITS :

   NOAA